Terminal Aerodrome Forecast
Issued by NWS

Home | Current Version | Previous Version | Text Only | Print | Product List | Glossary Off
Versions: 1 2 3 4 5 6 7 8 9 10 11 12 13 14

913
FTUS43 KMPX 111739
TAFAXN
TAF
KAXN 111739Z 1118/1218 18006KT P6SM OVC040
     FM112000 22006KT P6SM -SN OVC025
     FM112300 28006KT P6SM OVC015
     FM120500 33009KT P6SM BKN050
     FM120900 33014G22KT P6SM SKC=

USA.gov is the U.S. government's official web portal to all federal, state and local government web resources and services.